sensor_id;sensor_type;location;lat;lon;timestamp;pressure;altitude;pressure_sealevel;temperature;humidity
62103;BME280;48077;48.104;11.702;2022-08-21T00:00:13;95614.53;;;15.42;100.00
62103;BME280;48077;48.104;11.702;2022-08-21T00:02:43;95610.47;;;15.39;100.00
62103;BME280;48077;48.104;11.702;2022-08-21T00:05:07;95612.06;;;15.35;100.00
62103;BME280;48077;48.104;11.702;2022-08-21T00:07:30;95599.66;;;15.29;100.00
62103;BME280;48077;48.104;11.702;2022-08-21T00:09:55;95608.56;;;15.29;100.00
62103;BME280;48077;48.104;11.702;2022-08-21T00:12:18;95606.13;;;15.28;100.00
62103;BME280;48077;48.104;11.702;2022-08-21T00:14:42;95607.94;;;15.22;100.00
62103;BME280;48077;48.104;11.702;2022-08-21T00:17:05;95604.22;;;15.23;100.00
62103;BME280;48077;48.104;11.702;2022-08-21T00:19:30;95606.59;;;15.20;100.00
62103;BME280;48077;48.104;11.702;2022-08-21T00:21:54;95605.25;;;15.17;100.00
62103;BME280;48077;48.104;11.702;2022-08-21T00:24:19;95605.75;;;15.14;100.00
62103;BME280;48077;48.104;11.702;2022-08-21T00:26:43;95603.84;;;15.09;100.00
62103;BME280;48077;48.104;11.702;2022-08-21T00:29:06;95599.75;;;15.02;100.00
62103;BME280;48077;48.104;11.702;2022-08-21T00:31:30;95607.00;;;15.01;100.00
62103;BME280;48077;48.104;11.702;2022-08-21T00:33:53;95608.63;;;15.02;100.00
62103;BME280;48077;48.104;11.702;2022-08-21T00:36:16;95602.66;;;14.95;100.00
62103;BME280;48077;48.104;11.702;2022-08-21T00:38:40;95595.38;;;14.90;100.00
62103;BME280;48077;48.104;11.702;2022-08-21T00:41:05;95608.28;;;14.93;100.00
62103;BME280;48077;48.104;11.702;2022-08-21T00:43:32;95606.13;;;14.90;100.00
62103;BME280;48077;48.104;11.702;2022-08-21T00:45:56;95600.69;;;14.85;100.00
62103;BME280;48077;48.104;11.702;2022-08-21T00:48:21;95598.84;;;14.86;100.00
62103;BME280;48077;48.104;11.702;2022-08-21T00:50:50;95597.47;;;14.83;100.00
62103;BME280;48077;48.104;11.702;2022-08-21T00:53:15;95589.91;;;14.75;100.00
62103;BME280;48077;48.104;11.702;2022-08-21T00:55:40;95602.25;;;14.76;100.00
62103;BME280;48077;48.104;11.702;2022-08-21T00:58:05;95608.16;;;14.73;100.00
62103;BME280;48077;48.104;11.702;2022-08-21T01:00:32;95605.97;;;14.70;100.00
62103;BME280;48077;48.104;11.702;2022-08-21T01:02:58;95607.53;;;14.66;100.00
62103;BME280;48077;48.104;11.702;2022-08-21T01:05:22;95594.34;;;14.59;100.00
62103;BME280;48077;48.104;11.702;2022-08-21T01:07:45;95592.38;;;14.54;100.00
62103;BME280;48077;48.104;11.702;2022-08-21T01:10:09;95589.94;;;14.53;100.00
62103;BME280;48077;48.104;11.702;2022-08-21T01:12:33;95591.00;;;14.52;100.00
62103;BME280;48077;48.104;11.702;2022-08-21T01:14:56;95589.47;;;14.56;100.00
62103;BME280;48077;48.104;11.702;2022-08-21T01:17:21;95598.81;;;14.53;100.00
62103;BME280;48077;48.104;11.702;2022-08-21T01:19:45;95593.69;;;14.52;100.00
62103;BME280;48077;48.104;11.702;2022-08-21T01:22:09;95589.09;;;14.47;100.00
62103;BME280;48077;48.104;11.702;2022-08-21T01:24:33;95592.84;;;14.46;100.00
62103;BME280;48077;48.104;11.702;2022-08-21T01:26:57;95587.69;;;14.40;100.00
62103;BME280;48077;48.104;11.702;2022-08-21T01:31:59;95591.66;;;14.37;100.00
62103;BME280;48077;48.104;11.702;2022-08-21T01:34:26;95584.38;;;14.32;100.00
62103;BME280;48077;48.104;11.702;2022-08-21T01:36:49;95592.13;;;14.29;100.00
62103;BME280;48077;48.104;11.702;2022-08-21T01:39:13;95575.94;;;14.18;100.00
62103;BME280;48077;48.104;11.702;2022-08-21T01:41:37;95583.19;;;14.18;100.00
62103;BME280;48077;48.104;11.702;2022-08-21T01:44:01;95597.69;;;14.22;100.00
62103;BME280;48077;48.104;11.702;2022-08-21T01:46:24;95597.16;;;14.20;100.00
62103;BME280;48077;48.104;11.702;2022-08-21T01:48:48;95586.09;;;14.16;100.00
62103;BME280;48077;48.104;11.702;2022-08-21T01:51:11;95580.94;;;14.10;100.00
62103;BME280;48077;48.104;11.702;2022-08-21T01:53:35;95588.22;;;14.14;100.00
62103;BME280;48077;48.104;11.702;2022-08-21T01:55:59;95586.63;;;14.13;100.00
62103;BME280;48077;48.104;11.702;2022-08-21T01:58:23;95577.78;;;14.13;100.00
62103;BME280;48077;48.104;11.702;2022-08-21T02:00:46;95584.47;;;14.10;100.00
62103;BME280;48077;48.104;11.702;2022-08-21T02:03:09;95576.66;;;14.09;100.00
62103;BME280;48077;48.104;11.702;2022-08-21T02:05:33;95580.66;;;14.06;100.00
62103;BME280;48077;48.104;11.702;2022-08-21T02:07:56;95577.41;;;14.04;100.00
62103;BME280;48077;48.104;11.702;2022-08-21T02:10:31;95573.06;;;13.98;100.00
62103;BME280;48077;48.104;11.702;2022-08-21T02:12:55;95575.19;;;13.96;100.00
62103;BME280;48077;48.104;11.702;2022-08-21T02:15:19;95573.00;;;13.93;100.00
62103;BME280;48077;48.104;11.702;2022-08-21T02:18:05;95578.34;;;13.93;100.00
62103;BME280;48077;48.104;11.702;2022-08-21T02:20:38;95570.28;;;13.88;100.00
62103;BME280;48077;48.104;11.702;2022-08-21T02:23:03;95569.94;;;13.84;100.00
62103;BME280;48077;48.104;11.702;2022-08-21T02:25:28;95566.16;;;13.80;100.00
62103;BME280;48077;48.104;11.702;2022-08-21T02:27:52;95570.41;;;13.76;100.00
62103;BME280;48077;48.104;11.702;2022-08-21T02:30:27;95565.28;;;13.74;100.00
62103;BME280;48077;48.104;11.702;2022-08-21T02:32:52;95569.28;;;13.72;100.00
62103;BME280;48077;48.104;11.702;2022-08-21T02:35:15;95559.00;;;13.64;100.00
62103;BME280;48077;48.104;11.702;2022-08-21T02:37:48;95563.59;;;13.68;100.00
62103;BME280;48077;48.104;11.702;2022-08-21T02:40:12;95562.22;;;13.66;100.00
62103;BME280;48077;48.104;11.702;2022-08-21T02:42:35;95567.84;;;13.64;100.00
62103;BME280;48077;48.104;11.702;2022-08-21T02:44:59;95564.59;;;13.62;100.00
62103;BME280;48077;48.104;11.702;2022-08-21T02:47:22;95564.03;;;13.60;100.00
62103;BME280;48077;48.104;11.702;2022-08-21T02:49:45;95559.75;;;13.59;100.00
62103;BME280;48077;48.104;11.702;2022-08-21T02:52:09;95564.31;;;13.59;100.00
62103;BME280;48077;48.104;11.702;2022-08-21T02:54:32;95566.16;;;13.58;100.00
62103;BME280;48077;48.104;11.702;2022-08-21T02:56:56;95566.44;;;13.56;100.00
62103;BME280;48077;48.104;11.702;2022-08-21T02:59:20;95554.03;;;13.50;100.00
62103;BME280;48077;48.104;11.702;2022-08-21T03:01:43;95553.94;;;13.45;100.00
62103;BME280;48077;48.104;11.702;2022-08-21T03:04:07;95567.09;;;13.47;100.00
62103;BME280;48077;48.104;11.702;2022-08-21T03:06:30;95557.13;;;13.42;100.00
62103;BME280;48077;48.104;11.702;2022-08-21T03:08:54;95561.69;;;13.42;100.00
62103;BME280;48077;48.104;11.702;2022-08-21T03:11:17;95566.22;;;13.41;100.00
62103;BME280;48077;48.104;11.702;2022-08-21T03:13:42;95561.41;;;13.43;100.00
62103;BME280;48077;48.104;11.702;2022-08-21T03:16:06;95566.22;;;13.41;100.00
62103;BME280;48077;48.104;11.702;2022-08-21T03:18:30;95564.28;;;13.36;100.00
62103;BME280;48077;48.104;11.702;2022-08-21T03:20:53;95574.19;;;13.36;100.00
62103;BME280;48077;48.104;11.702;2022-08-21T03:23:17;95568.03;;;13.35;100.00
62103;BME280;48077;48.104;11.702;2022-08-21T03:25:41;95565.84;;;13.32;100.00
62103;BME280;48077;48.104;11.702;2022-08-21T03:28:07;95567.97;;;13.30;100.00
62103;BME280;48077;48.104;11.702;2022-08-21T03:30:31;95561.00;;;13.29;100.00
62103;BME280;48077;48.104;11.702;2022-08-21T03:32:54;95563.88;;;13.28;100.00
62103;BME280;48077;48.104;11.702;2022-08-21T03:35:19;95557.72;;;13.27;100.00
62103;BME280;48077;48.104;11.702;2022-08-21T03:37:43;95556.09;;;13.26;100.00
62103;BME280;48077;48.104;11.702;2022-08-21T03:40:08;95550.13;;;13.19;100.00
62103;BME280;48077;48.104;11.702;2022-08-21T03:42:31;95566.25;;;13.24;100.00
62103;BME280;48077;48.104;11.702;2022-08-21T03:44:55;95572.41;;;13.25;100.00
62103;BME280;48077;48.104;11.702;2022-08-21T03:47:18;95560.81;;;13.19;100.00
62103;BME280;48077;48.104;11.702;2022-08-21T03:49:42;95568.13;;;13.24;100.00
62103;BME280;48077;48.104;11.702;2022-08-21T03:52:05;95573.47;;;13.24;100.00
62103;BME280;48077;48.104;11.702;2022-08-21T03:54:28;95571.03;;;13.22;100.00
62103;BME280;48077;48.104;11.702;2022-08-21T03:56:52;95569.41;;;13.21;100.00
62103;BME280;48077;48.104;11.702;2022-08-21T03:59:16;95580.13;;;13.21;100.00
62103;BME280;48077;48.104;11.702;2022-08-21T04:01:39;95573.88;;;13.15;100.00
62103;BME280;48077;48.104;11.702;2022-08-21T04:04:03;95569.28;;;13.11;100.00
62103;BME280;48077;48.104;11.702;2022-08-21T04:06:27;95573.56;;;13.12;100.00
62103;BME280;48077;48.104;11.702;2022-08-21T04:08:50;95573.56;;;13.12;100.00
62103;BME280;48077;48.104;11.702;2022-08-21T04:11:13;95573.84;;;13.10;100.00
62103;BME280;48077;48.104;11.702;2022-08-21T04:13:38;95579.09;;;13.05;100.00
62103;BME280;48077;48.104;11.702;2022-08-21T04:16:02;95578.06;;;13.06;100.00
62103;BME280;48077;48.104;11.702;2022-08-21T04:18:25;95581.31;;;13.08;100.00
62103;BME280;48077;48.104;11.702;2022-08-21T04:20:50;95582.34;;;13.07;100.00
62103;BME280;48077;48.104;11.702;2022-08-21T04:23:14;95581.44;;;13.02;100.00
62103;BME280;48077;48.104;11.702;2022-08-21T04:25:38;95585.44;;;12.99;100.00
62103;BME280;48077;48.104;11.702;2022-08-21T04:28:02;95588.34;;;12.98;100.00
62103;BME280;48077;48.104;11.702;2022-08-21T04:30:26;95595.09;;;13.00;100.00
62103;BME280;48077;48.104;11.702;2022-08-21T04:32:50;95593.78;;;13.03;100.00
62103;BME280;48077;48.104;11.702;2022-08-21T04:35:15;95597.59;;;13.07;100.00
62103;BME280;48077;48.104;11.702;2022-08-21T04:37:39;95601.66;;;13.09;100.00
62103;BME280;48077;48.104;11.702;2022-08-21T04:40:04;95603.03;;;13.12;100.00
62103;BME280;48077;48.104;11.702;2022-08-21T04:42:28;95598.41;;;13.07;100.00
62103;BME280;48077;48.104;11.702;2022-08-21T04:44:51;95603.84;;;13.12;100.00
62103;BME280;48077;48.104;11.702;2022-08-21T04:47:15;95611.72;;;13.19;100.00
62103;BME280;48077;48.104;11.702;2022-08-21T04:49:39;95615.19;;;13.20;100.00
62103;BME280;48077;48.104;11.702;2022-08-21T04:52:05;95610.31;;;13.16;100.00
62103;BME280;48077;48.104;11.702;2022-08-21T04:54:28;95609.03;;;13.19;100.00
62103;BME280;48077;48.104;11.702;2022-08-21T04:56:55;95599.31;;;13.13;100.00
62103;BME280;48077;48.104;11.702;2022-08-21T04:59:22;95610.63;;;13.20;100.00
62103;BME280;48077;48.104;11.702;2022-08-21T05:01:47;95592.06;;;13.13;100.00
62103;BME280;48077;48.104;11.702;2022-08-21T05:04:15;95608.19;;;13.19;100.00
62103;BME280;48077;48.104;11.702;2022-08-21T05:06:41;95605.78;;;13.17;100.00
62103;BME280;48077;48.104;11.702;2022-08-21T05:09:07;95605.53;;;13.19;100.00
62103;BME280;48077;48.104;11.702;2022-08-21T05:11:32;95601.00;;;13.19;100.00
62103;BME280;48077;48.104;11.702;2022-08-21T05:13:56;95612.91;;;13.28;100.00
62103;BME280;48077;48.104;11.702;2022-08-21T05:16:19;95603.00;;;13.29;100.00
62103;BME280;48077;48.104;11.702;2022-08-21T05:18:43;95610.06;;;13.35;100.00
62103;BME280;48077;48.104;11.702;2022-08-21T05:21:06;95612.25;;;13.38;100.00
62103;BME280;48077;48.104;11.702;2022-08-21T05:23:30;95614.44;;;13.41;100.00
62103;BME280;48077;48.104;11.702;2022-08-21T05:25:53;95619.38;;;13.49;100.00
62103;BME280;48077;48.104;11.702;2022-08-21T05:28:18;95613.22;;;13.49;100.00
62103;BME280;48077;48.104;11.702;2022-08-21T05:30:41;95608.47;;;13.56;100.00
62103;BME280;48077;48.104;11.702;2022-08-21T05:33:06;95619.31;;;13.66;100.00
62103;BME280;48077;48.104;11.702;2022-08-21T05:35:30;95619.97;;;13.73;100.00
62103;BME280;48077;48.104;11.702;2022-08-21T05:37:54;95619.75;;;13.80;100.00
62103;BME280;48077;48.104;11.702;2022-08-21T05:40:17;95618.69;;;13.81;100.00
62103;BME280;48077;48.104;11.702;2022-08-21T05:42:41;95631.72;;;13.94;100.00
62103;BME280;48077;48.104;11.702;2022-08-21T05:45:04;95630.75;;;14.01;100.00
62103;BME280;48077;48.104;11.702;2022-08-21T05:47:28;95625.94;;;14.03;100.00
62103;BME280;48077;48.104;11.702;2022-08-21T05:49:51;95636.50;;;14.14;100.00
62103;BME280;48077;48.104;11.702;2022-08-21T05:52:19;95638.19;;;14.21;100.00
62103;BME280;48077;48.104;11.702;2022-08-21T05:54:43;95630.44;;;14.24;100.00
62103;BME280;48077;48.104;11.702;2022-08-21T05:57:06;95634.31;;;14.33;100.00
62103;BME280;48077;48.104;11.702;2022-08-21T05:59:31;95638.69;;;14.40;100.00
62103;BME280;48077;48.104;11.702;2022-08-21T06:01:54;95626.88;;;14.41;100.00
62103;BME280;48077;48.104;11.702;2022-08-21T06:04:18;95643.06;;;14.51;100.00
62103;BME280;48077;48.104;11.702;2022-08-21T06:06:41;95632.56;;;14.49;100.00
62103;BME280;48077;48.104;11.702;2022-08-21T06:09:05;95638.88;;;14.60;100.00
62103;BME280;48077;48.104;11.702;2022-08-21T06:11:29;95640.00;;;14.64;100.00
62103;BME280;48077;48.104;11.702;2022-08-21T06:13:53;95645.19;;;14.71;100.00
62103;BME280;48077;48.104;11.702;2022-08-21T06:16:16;95636.59;;;14.74;100.00
62103;BME280;48077;48.104;11.702;2022-08-21T06:18:40;95646.06;;;14.82;100.00
62103;BME280;48077;48.104;11.702;2022-08-21T06:21:04;95638.03;;;14.87;100.00
62103;BME280;48077;48.104;11.702;2022-08-21T06:23:28;95634.59;;;14.91;100.00
62103;BME280;48077;48.104;11.702;2022-08-21T06:25:51;95630.06;;;14.97;100.00
62103;BME280;48077;48.104;11.702;2022-08-21T06:28:15;95645.16;;;15.03;100.00
62103;BME280;48077;48.104;11.702;2022-08-21T06:30:39;95635.22;;;15.04;100.00
62103;BME280;48077;48.104;11.702;2022-08-21T06:33:03;95638.22;;;15.12;100.00
62103;BME280;48077;48.104;11.702;2022-08-21T06:35:26;95636.66;;;15.16;100.00
62103;BME280;48077;48.104;11.702;2022-08-21T06:37:51;95642.06;;;15.22;100.00
62103;BME280;48077;48.104;11.702;2022-08-21T06:40:15;95640.50;;;15.31;100.00
62103;BME280;48077;48.104;11.702;2022-08-21T06:42:39;95638.44;;;15.38;100.00
62103;BME280;48077;48.104;11.702;2022-08-21T06:45:03;95632.28;;;15.43;100.00
62103;BME280;48077;48.104;11.702;2022-08-21T06:47:26;95634.16;;;15.47;100.00
62103;BME280;48077;48.104;11.702;2022-08-21T06:49:49;95633.91;;;15.49;100.00
62103;BME280;48077;48.104;11.702;2022-08-21T06:52:13;95628.56;;;15.54;100.00
62103;BME280;48077;48.104;11.702;2022-08-21T06:54:37;95627.00;;;15.63;100.00
62103;BME280;48077;48.104;11.702;2022-08-21T06:57:01;95616.00;;;15.65;100.00
62103;BME280;48077;48.104;11.702;2022-08-21T06:59:24;95626.00;;;15.74;100.00
62103;BME280;48077;48.104;11.702;2022-08-21T07:01:47;95623.34;;;15.80;100.00
62103;BME280;48077;48.104;11.702;2022-08-21T07:04:11;95622.84;;;15.88;100.00
62103;BME280;48077;48.104;11.702;2022-08-21T07:06:34;95621.78;;;15.89;100.00
62103;BME280;48077;48.104;11.702;2022-08-21T07:08:58;95616.13;;;15.95;100.00
62103;BME280;48077;48.104;11.702;2022-08-21T07:11:23;95622.09;;;16.03;100.00
62103;BME280;48077;48.104;11.702;2022-08-21T07:13:46;95606.50;;;16.05;100.00
62103;BME280;48077;48.104;11.702;2022-08-21T07:16:11;95611.91;;;16.20;100.00
62103;BME280;48077;48.104;11.702;2022-08-21T07:18:35;95612.50;;;16.27;100.00
62103;BME280;48077;48.104;11.702;2022-08-21T07:21:00;95611.13;;;16.35;100.00
62103;BME280;48077;48.104;11.702;2022-08-21T07:23:31;95608.47;;;16.40;100.00
62103;BME280;48077;48.104;11.702;2022-08-21T07:25:56;95608.47;;;16.40;100.00
62103;BME280;48077;48.104;11.702;2022-08-21T07:28:19;95600.66;;;16.44;99.72
62103;BME280;48077;48.104;11.702;2022-08-21T07:30:42;95600.94;;;16.47;99.16
62103;BME280;48077;48.104;11.702;2022-08-21T07:33:06;95606.06;;;16.54;97.29
62103;BME280;48077;48.104;11.702;2022-08-21T07:35:30;95613.34;;;16.64;98.38
62103;BME280;48077;48.104;11.702;2022-08-21T07:37:56;95612.53;;;16.68;96.75
62103;BME280;48077;48.104;11.702;2022-08-21T07:40:19;95614.44;;;16.78;96.68
62103;BME280;48077;48.104;11.702;2022-08-21T07:42:45;95614.47;;;16.83;93.97
62103;BME280;48077;48.104;11.702;2022-08-21T07:45:10;95604.75;;;16.87;91.85
62103;BME280;48077;48.104;11.702;2022-08-21T07:47:34;95613.41;;;16.94;92.43
62103;BME280;48077;48.104;11.702;2022-08-21T07:49:57;95611.50;;;17.00;92.57
62103;BME280;48077;48.104;11.702;2022-08-21T07:52:20;95607.75;;;17.06;92.43
62103;BME280;48077;48.104;11.702;2022-08-21T07:54:44;95609.31;;;17.12;91.03
62103;BME280;48077;48.104;11.702;2022-08-21T07:57:07;95592.09;;;17.13;90.78
62103;BME280;48077;48.104;11.702;2022-08-21T07:59:30;95606.09;;;17.26;89.97
62103;BME280;48077;48.104;11.702;2022-08-21T08:01:54;95597.19;;;17.30;88.48
62103;BME280;48077;48.104;11.702;2022-08-21T08:04:17;95594.22;;;17.42;86.25
62103;BME280;48077;48.104;11.702;2022-08-21T08:06:41;95590.41;;;17.48;85.93
62103;BME280;48077;48.104;11.702;2022-08-21T08:09:04;95597.94;;;17.56;85.56
62103;BME280;48077;48.104;11.702;2022-08-21T08:11:28;95593.63;;;17.60;85.18
62103;BME280;48077;48.104;11.702;2022-08-21T08:13:52;95592.25;;;17.63;82.25
62103;BME280;48077;48.104;11.702;2022-08-21T08:16:15;95600.31;;;17.73;83.01
62103;BME280;48077;48.104;11.702;2022-08-21T08:18:39;95588.69;;;17.73;80.61
62103;BME280;48077;48.104;11.702;2022-08-21T08:21:03;95591.66;;;17.82;82.61
62103;BME280;48077;48.104;11.702;2022-08-21T08:23:27;95594.09;;;17.88;79.49
62103;BME280;48077;48.104;11.702;2022-08-21T08:25:51;95582.72;;;17.91;82.25
62103;BME280;48077;48.104;11.702;2022-08-21T08:28:14;95587.00;;;17.97;81.84
62103;BME280;48077;48.104;11.702;2022-08-21T08:30:38;95588.59;;;18.09;80.38
62103;BME280;48077;48.104;11.702;2022-08-21T08:33:01;95585.84;;;18.14;77.91
62103;BME280;48077;48.104;11.702;2022-08-21T08:35:25;95587.44;;;18.20;79.05
62103;BME280;48077;48.104;11.702;2022-08-21T08:37:49;95581.50;;;18.23;76.64
62103;BME280;48077;48.104;11.702;2022-08-21T08:40:38;95583.31;;;18.33;78.08
62103;BME280;48077;48.104;11.702;2022-08-21T08:43:03;95573.56;;;18.37;76.42
62103;BME280;48077;48.104;11.702;2022-08-21T08:45:30;95578.63;;;18.49;77.15
62103;BME280;48077;48.104;11.702;2022-08-21T08:48:00;95578.03;;;18.57;74.48
62103;BME280;48077;48.104;11.702;2022-08-21T08:53:07;95579.22;;;18.75;73.17
62103;BME280;48077;48.104;11.702;2022-08-21T08:55:39;95580.56;;;18.83;72.68
62103;BME280;48077;48.104;11.702;2022-08-21T08:58:03;95587.78;;;18.92;73.40
62103;BME280;48077;48.104;11.702;2022-08-21T09:00:27;95580.16;;;18.99;72.97
62103;BME280;48077;48.104;11.702;2022-08-21T09:02:55;95572.75;;;19.10;72.51
62103;BME280;48077;48.104;11.702;2022-08-21T09:05:29;95583.97;;;19.28;72.98
62103;BME280;48077;48.104;11.702;2022-08-21T09:16:11;95578.13;;;19.39;73.46
62103;BME280;48077;48.104;11.702;2022-08-21T09:18:55;95577.22;;;19.25;75.04
62103;BME280;48077;48.104;11.702;2022-08-21T09:21:43;95569.31;;;19.29;72.90
62103;BME280;48077;48.104;11.702;2022-08-21T09:27:09;95576.19;;;19.45;71.75
62103;BME280;48077;48.104;11.702;2022-08-21T09:29:37;95575.69;;;19.43;71.89
62103;BME280;48077;48.104;11.702;2022-08-21T09:32:03;95564.75;;;19.53;71.36
62103;BME280;48077;48.104;11.702;2022-08-21T09:34:32;95567.19;;;19.79;71.00
62103;BME280;48077;48.104;11.702;2022-08-21T09:36:56;95577.09;;;20.08;71.13
62103;BME280;48077;48.104;11.702;2022-08-21T09:39:32;95567.81;;;20.33;69.01
62103;BME280;48077;48.104;11.702;2022-08-21T09:42:03;95567.25;;;20.55;68.43
62103;BME280;48077;48.104;11.702;2022-08-21T09:44:31;95565.13;;;20.52;67.65
62103;BME280;48077;48.104;11.702;2022-08-21T09:46:55;95567.41;;;20.45;68.78
62103;BME280;48077;48.104;11.702;2022-08-21T09:49:37;95565.88;;;20.38;67.26
62103;BME280;48077;48.104;11.702;2022-08-21T09:52:03;95566.38;;;20.21;67.75
62103;BME280;48077;48.104;11.702;2022-08-21T09:54:33;95561.00;;;20.35;67.43
62103;BME280;48077;48.104;11.702;2022-08-21T09:57:00;95557.09;;;20.66;67.76
62103;BME280;48077;48.104;11.702;2022-08-21T09:59:47;95563.44;;;20.56;62.84
62103;BME280;48077;48.104;11.702;2022-08-21T10:04:57;95559.13;;;20.36;66.67
62103;BME280;48077;48.104;11.702;2022-08-21T10:07:23;95550.34;;;20.25;65.18
62103;BME280;48077;48.104;11.702;2022-08-21T10:10:01;95550.41;;;20.20;66.92
62103;BME280;48077;48.104;11.702;2022-08-21T10:12:33;95546.91;;;20.19;66.97
62103;BME280;48077;48.104;11.702;2022-08-21T10:15:35;95550.69;;;20.18;64.24
62103;BME280;48077;48.104;11.702;2022-08-21T10:21:08;95548.56;;;21.05;58.65
62103;BME280;48077;48.104;11.702;2022-08-21T10:26:09;95549.25;;;21.85;58.59
62103;BME280;48077;48.104;11.702;2022-08-21T10:28:51;95539.69;;;22.01;58.87
62103;BME280;48077;48.104;11.702;2022-08-21T10:34:32;95545.97;;;21.60;62.28
62103;BME280;48077;48.104;11.702;2022-08-21T10:39:39;95540.66;;;21.22;64.53
62103;BME280;48077;48.104;11.702;2022-08-21T10:42:17;95542.34;;;21.05;66.75
62103;BME280;48077;48.104;11.702;2022-08-21T10:45:07;95540.72;;;20.90;67.24
62103;BME280;48077;48.104;11.702;2022-08-21T10:47:37;95536.84;;;20.77;65.97
62103;BME280;48077;48.104;11.702;2022-08-21T10:55:35;95545.91;;;22.02;64.17
62103;BME280;48077;48.104;11.702;2022-08-21T10:58:11;95514.44;;;22.15;61.11
62103;BME280;48077;48.104;11.702;2022-08-21T11:00:48;95522.53;;;22.42;59.70
62103;BME280;48077;48.104;11.702;2022-08-21T11:03:22;95529.50;;;22.57;59.00
62103;BME280;48077;48.104;11.702;2022-08-21T11:05:54;95531.47;;;22.66;59.62
62103;BME280;48077;48.104;11.702;2022-08-21T11:08:29;95527.34;;;22.68;59.43
62103;BME280;48077;48.104;11.702;2022-08-21T11:10:59;95526.03;;;22.88;58.11
62103;BME280;48077;48.104;11.702;2022-08-21T11:13:30;95515.22;;;22.74;58.63
62103;BME280;48077;48.104;11.702;2022-08-21T11:16:02;95519.06;;;22.51;58.36
62103;BME280;48077;48.104;11.702;2022-08-21T11:18:31;95517.16;;;22.15;57.66
62103;BME280;48077;48.104;11.702;2022-08-21T11:21:03;95524.09;;;22.07;59.43
62103;BME280;48077;48.104;11.702;2022-08-21T11:23:41;95517.69;;;21.89;59.64
62103;BME280;48077;48.104;11.702;2022-08-21T11:26:15;95523.66;;;21.77;61.22
62103;BME280;48077;48.104;11.702;2022-08-21T11:28:45;95515.72;;;21.67;62.13
62103;BME280;48077;48.104;11.702;2022-08-21T11:37:40;95495.66;;;21.35;64.00
62103;BME280;48077;48.104;11.702;2022-08-21T11:48:51;95507.81;;;21.93;65.00
62103;BME280;48077;48.104;11.702;2022-08-21T11:51:22;95506.72;;;22.45;64.37
62103;BME280;48077;48.104;11.702;2022-08-21T11:56:54;95492.19;;;23.26;54.89
62103;BME280;48077;48.104;11.702;2022-08-21T11:59:23;95494.38;;;23.55;54.67
62103;BME280;48077;48.104;11.702;2022-08-21T12:01:50;95500.19;;;22.99;55.82
62103;BME280;48077;48.104;11.702;2022-08-21T12:04:34;95495.03;;;23.20;54.02
62103;BME280;48077;48.104;11.702;2022-08-21T12:07:15;95490.97;;;23.98;49.46
62103;BME280;48077;48.104;11.702;2022-08-21T12:09:39;95483.31;;;24.35;44.43
62103;BME280;48077;48.104;11.702;2022-08-21T12:12:12;95487.78;;;24.83;43.63
62103;BME280;48077;48.104;11.702;2022-08-21T12:14:45;95476.78;;;25.27;45.12
62103;BME280;48077;48.104;11.702;2022-08-21T12:17:21;95479.03;;;25.63;44.52
62103;BME280;48077;48.104;11.702;2022-08-21T12:19:44;95475.63;;;25.96;43.39
62103;BME280;48077;48.104;11.702;2022-08-21T12:22:12;95471.25;;;26.24;42.10
62103;BME280;48077;48.104;11.702;2022-08-21T12:25:02;95467.00;;;26.57;42.19
62103;BME280;48077;48.104;11.702;2022-08-21T12:27:29;95471.50;;;27.07;41.38
62103;BME280;48077;48.104;11.702;2022-08-21T12:30:02;95474.84;;;26.92;41.20
62103;BME280;48077;48.104;11.702;2022-08-21T12:35:39;95465.75;;;25.05;44.78
62103;BME280;48077;48.104;11.702;2022-08-21T12:38:28;95462.31;;;24.35;48.82
62103;BME280;48077;48.104;11.702;2022-08-21T12:40:55;95471.09;;;23.89;51.73
62103;BME280;48077;48.104;11.702;2022-08-21T12:43:29;95463.13;;;23.43;53.44
62103;BME280;48077;48.104;11.702;2022-08-21T12:45:54;95462.63;;;23.01;54.52
62103;BME280;48077;48.104;11.702;2022-08-21T12:50:52;95449.91;;;22.20;57.72
62103;BME280;48077;48.104;11.702;2022-08-21T12:53:30;95456.13;;;21.98;58.75
62103;BME280;48077;48.104;11.702;2022-08-21T12:55:55;95447.63;;;21.77;57.15
62103;BME280;48077;48.104;11.702;2022-08-21T12:58:24;95458.50;;;21.63;58.04
62103;BME280;48077;48.104;11.702;2022-08-21T13:00:56;95456.41;;;21.60;58.14
62103;BME280;48077;48.104;11.702;2022-08-21T13:03:21;95445.56;;;21.60;57.60
62103;BME280;48077;48.104;11.702;2022-08-21T13:05:45;95454.72;;;21.65;57.67
62103;BME280;48077;48.104;11.702;2022-08-21T13:08:11;95444.94;;;21.63;57.10
62103;BME280;48077;48.104;11.702;2022-08-21T13:10:36;95438.31;;;22.74;54.62
62103;BME280;48077;48.104;11.702;2022-08-21T13:13:03;95440.50;;;23.83;50.86
62103;BME280;48077;48.104;11.702;2022-08-21T13:15:33;95435.50;;;24.72;48.43
62103;BME280;48077;48.104;11.702;2022-08-21T13:17:58;95432.63;;;25.24;46.08
62103;BME280;48077;48.104;11.702;2022-08-21T13:20:33;95421.25;;;24.67;45.86
62103;BME280;48077;48.104;11.702;2022-08-21T13:22:57;95431.38;;;25.13;45.31
62103;BME280;48077;48.104;11.702;2022-08-21T13:25:25;95420.56;;;25.85;45.86
62103;BME280;48077;48.104;11.702;2022-08-21T13:27:59;95429.47;;;26.24;43.84
62103;BME280;48077;48.104;11.702;2022-08-21T13:30:23;95421.53;;;26.64;43.80
62103;BME280;48077;48.104;11.702;2022-08-21T13:32:49;95424.00;;;26.03;45.32
62103;BME280;48077;48.104;11.702;2022-08-21T13:35:20;95430.59;;;25.04;45.97
62103;BME280;48077;48.104;11.702;2022-08-21T13:37:46;95424.63;;;24.63;48.26